createdAt,value
2022-09-01T00:01:29.279Z,100.00
2022-09-01T00:03:59.810Z,100.00
2022-09-01T00:06:27.785Z,100.00
2022-09-01T00:08:58.391Z,100.00
2022-09-01T00:11:27.021Z,100.00
2022-09-01T00:13:55.126Z,100.00
2022-09-01T00:16:23.626Z,100.00
2022-09-01T00:18:52.529Z,100.00
2022-09-01T00:21:21.466Z,100.00
2022-09-01T00:23:49.572Z,100.00
2022-09-01T00:26:18.850Z,100.00
2022-09-01T00:28:46.694Z,100.00
2022-09-01T00:31:15.275Z,100.00
2022-09-01T00:33:43.134Z,100.00
2022-09-01T00:36:11.064Z,100.00
2022-09-01T00:38:40.213Z,100.00
2022-09-01T00:41:08.286Z,100.00
2022-09-01T00:43:39.860Z,100.00
2022-09-01T00:46:09.228Z,100.00
2022-09-01T00:48:38.641Z,100.00
2022-09-01T00:51:06.859Z,100.00
2022-09-01T00:53:34.716Z,100.00
2022-09-01T00:56:02.792Z,100.00
2022-09-01T00:58:31.518Z,100.00
2022-09-01T01:01:00.716Z,100.00
2022-09-01T01:03:30.298Z,100.00
2022-09-01T01:05:59.277Z,100.00
2022-09-01T01:08:34.056Z,100.00
2022-09-01T01:11:02.428Z,100.00
2022-09-01T01:13:32.166Z,100.00
2022-09-01T01:16:02.020Z,100.00
2022-09-01T01:18:29.989Z,100.00
2022-09-01T01:21:19.975Z,100.00
2022-09-01T01:23:51.437Z,100.00
2022-09-01T01:26:20.618Z,100.00
2022-09-01T01:28:48.817Z,100.00
2022-09-01T01:31:18.496Z,100.00
2022-09-01T01:33:50.971Z,100.00
2022-09-01T01:36:21.628Z,100.00
2022-09-01T01:38:50.361Z,100.00
2022-09-01T01:41:19.707Z,100.00
2022-09-01T01:43:51.126Z,100.00
2022-09-01T01:46:19.350Z,100.00
2022-09-01T01:48:52.430Z,100.00
2022-09-01T01:51:21.302Z,100.00
2022-09-01T01:53:52.717Z,100.00
2022-09-01T01:56:20.726Z,100.00
2022-09-01T01:58:50.097Z,100.00
2022-09-01T02:01:20.209Z,100.00
2022-09-01T02:03:48.388Z,100.00
2022-09-01T02:06:16.284Z,100.00
2022-09-01T02:08:44.197Z,100.00
2022-09-01T02:11:13.267Z,100.00
2022-09-01T02:13:41.183Z,100.00
2022-09-01T02:16:13.023Z,100.00
2022-09-01T02:18:42.827Z,100.00
2022-09-01T02:21:17.646Z,100.00
2022-09-01T02:23:57.588Z,100.00
2022-09-01T02:26:30.155Z,100.00
2022-09-01T02:28:58.230Z,100.00
2022-09-01T02:31:28.187Z,100.00
2022-09-01T02:33:56.570Z,100.00
2022-09-01T02:36:25.498Z,100.00
2022-09-01T02:38:56.391Z,100.00
2022-09-01T02:41:25.371Z,100.00
2022-09-01T02:43:54.194Z,100.00
2022-09-01T02:46:24.343Z,100.00
2022-09-01T02:48:54.656Z,100.00
2022-09-01T02:51:25.737Z,100.00
2022-09-01T02:53:53.771Z,100.00
2022-09-01T02:56:25.114Z,100.00
2022-09-01T02:58:53.587Z,100.00
2022-09-01T03:01:24.837Z,100.00
2022-09-01T03:03:55.256Z,100.00
2022-09-01T03:06:24.246Z,100.00
2022-09-01T03:08:52.758Z,100.00
2022-09-01T03:11:20.634Z,100.00
2022-09-01T03:13:48.454Z,100.00
2022-09-01T03:16:16.331Z,100.00
2022-09-01T03:18:44.238Z,100.00
2022-09-01T03:21:16.192Z,100.00
2022-09-01T03:23:44.160Z,100.00
2022-09-01T03:26:11.981Z,100.00
2022-09-01T03:28:40.515Z,100.00
2022-09-01T03:31:09.004Z,100.00
2022-09-01T03:33:37.311Z,100.00
2022-09-01T03:36:05.513Z,100.00
2022-09-01T03:38:48.404Z,100.00
2022-09-01T03:41:17.852Z,100.00
2022-09-01T03:43:47.197Z,100.00
2022-09-01T03:46:20.248Z,100.00
2022-09-01T03:48:49.172Z,100.00
2022-09-01T03:51:17.388Z,100.00
2022-09-01T03:53:47.422Z,100.00
2022-09-01T03:56:15.328Z,100.00
2022-09-01T03:58:45.527Z,100.00
2022-09-01T04:01:13.797Z,100.00
2022-09-01T04:03:42.630Z,100.00
2022-09-01T04:06:10.839Z,100.00
2022-09-01T04:08:39.457Z,100.00
2022-09-01T04:11:16.490Z,100.00
2022-09-01T04:13:44.533Z,100.00
2022-09-01T04:16:39.898Z,100.00
2022-09-01T04:19:16.095Z,100.00
2022-09-01T04:21:45.039Z,100.00
2022-09-01T04:24:14.826Z,100.00
2022-09-01T04:26:46.088Z,100.00
2022-09-01T04:29:13.916Z,100.00
2022-09-01T04:31:42.635Z,100.00
2022-09-01T04:34:13.995Z,100.00
2022-09-01T04:36:43.587Z,100.00
2022-09-01T04:39:13.374Z,100.00
2022-09-01T04:41:46.272Z,100.00
2022-09-01T04:44:19.338Z,100.00
2022-09-01T04:46:47.968Z,100.00
2022-09-01T04:49:22.598Z,100.00
2022-09-01T04:51:53.983Z,100.00
2022-09-01T04:54:22.802Z,100.00
2022-09-01T04:56:52.586Z,100.00
2022-09-01T04:59:24.393Z,100.00
2022-09-01T05:01:55.657Z,100.00
2022-09-01T05:04:27.483Z,100.00
2022-09-01T05:07:00.892Z,100.00
2022-09-01T05:09:28.960Z,100.00
2022-09-01T05:11:57.757Z,100.00
2022-09-01T05:14:27.120Z,100.00
2022-09-01T05:16:58.400Z,100.00
2022-09-01T05:19:29.095Z,100.00
2022-09-01T05:22:02.159Z,100.00
2022-09-01T05:24:41.812Z,100.00
2022-09-01T05:27:17.011Z,100.00
2022-09-01T05:29:47.035Z,100.00
2022-09-01T05:32:15.153Z,100.00
2022-09-01T05:34:45.229Z,100.00
2022-09-01T05:37:16.159Z,100.00
2022-09-01T05:39:44.362Z,100.00
2022-09-01T05:42:12.289Z,100.00
2022-09-01T05:44:42.486Z,100.00
2022-09-01T05:47:20.284Z,100.00
2022-09-01T05:49:49.925Z,100.00
2022-09-01T05:52:17.985Z,100.00
2022-09-01T05:54:49.854Z,100.00
2022-09-01T05:57:33.851Z,100.00
2022-09-01T06:00:02.786Z,100.00
2022-09-01T06:02:33.898Z,100.00
2022-09-01T06:05:01.854Z,100.00
2022-09-01T06:07:29.699Z,100.00
2022-09-01T06:09:57.663Z,100.00
2022-09-01T06:12:28.800Z,100.00
2022-09-01T06:14:59.501Z,100.00
2022-09-01T06:17:29.601Z,100.00
2022-09-01T06:19:58.895Z,100.00
2022-09-01T06:22:28.041Z,100.00
2022-09-01T06:25:01.941Z,100.00
2022-09-01T06:27:31.091Z,100.00
2022-09-01T06:29:59.058Z,100.00
2022-09-01T06:32:27.254Z,100.00
2022-09-01T06:34:58.268Z,100.00
2022-09-01T06:37:28.930Z,100.00
2022-09-01T06:39:57.680Z,100.00
2022-09-01T06:42:26.180Z,100.00
2022-09-01T06:44:54.036Z,100.00
2022-09-01T06:47:21.840Z,100.00
2022-09-01T06:49:51.841Z,100.00
2022-09-01T06:52:23.687Z,100.00
2022-09-01T06:54:55.012Z,100.00
2022-09-01T07:00:19.411Z,100.00
2022-09-01T07:02:50.402Z,100.00
2022-09-01T07:08:09.347Z,100.00
2022-09-01T07:13:34.859Z,100.00
2022-09-01T07:18:59.809Z,100.00
2022-09-01T07:21:42.026Z,100.00
2022-09-01T07:24:20.377Z,100.00
2022-09-01T07:26:50.787Z,100.00
2022-09-01T07:29:21.899Z,100.00
2022-09-01T07:34:39.650Z,100.00
2022-09-01T07:37:17.276Z,100.00
2022-09-01T07:39:56.133Z,100.00
2022-09-01T07:42:56.789Z,100.00
2022-09-01T07:45:32.889Z,100.00
2022-09-01T07:48:07.610Z,100.00
2022-09-01T07:54:21.752Z,100.00
2022-09-01T07:56:50.427Z,100.00
2022-09-01T07:59:21.306Z,100.00
2022-09-01T08:01:49.735Z,100.00
2022-09-01T08:04:18.592Z,100.00
2022-09-01T08:06:46.996Z,99.33
2022-09-01T08:09:27.323Z,98.41
2022-09-01T08:12:02.998Z,98.42
2022-09-01T08:14:34.259Z,99.29
2022-09-01T08:17:16.798Z,99.43
2022-09-01T08:19:47.091Z,98.26
2022-09-01T08:22:17.918Z,97.88
2022-09-01T08:24:48.657Z,97.34
2022-09-01T08:27:16.729Z,97.15
2022-09-01T08:29:45.948Z,98.41
2022-09-01T08:32:13.814Z,96.54
2022-09-01T08:34:44.048Z,96.17
2022-09-01T08:37:12.210Z,94.51
2022-09-01T08:39:40.061Z,94.01
2022-09-01T08:42:10.923Z,92.50
2022-09-01T08:44:41.614Z,90.05
2022-09-01T08:47:13.007Z,84.26
2022-09-01T08:49:46.183Z,83.31
2022-09-01T08:52:19.289Z,86.95
2022-09-01T08:54:49.931Z,81.10
2022-09-01T08:57:20.372Z,77.97
2022-09-01T08:59:48.155Z,81.97
2022-09-01T09:02:36.809Z,81.71
2022-09-01T09:05:22.938Z,85.29
2022-09-01T09:08:18.978Z,86.46
2022-09-01T09:10:51.003Z,84.62
2022-09-01T09:13:23.141Z,86.48
2022-09-01T09:16:06.922Z,87.95
2022-09-01T09:18:40.612Z,87.81
2022-09-01T09:21:10.532Z,87.99
2022-09-01T09:23:41.017Z,87.19
2022-09-01T09:26:08.984Z,87.36
2022-09-01T09:28:38.605Z,87.49
2022-09-01T09:31:32.051Z,89.46
2022-09-01T09:34:01.425Z,89.27
2022-09-01T09:36:35.869Z,88.86
2022-09-01T09:39:12.467Z,86.94
2022-09-01T09:41:41.200Z,84.12
2022-09-01T09:44:20.473Z,83.62
2022-09-01T09:46:48.966Z,82.24
2022-09-01T09:49:21.689Z,80.38
2022-09-01T09:52:16.473Z,77.88
2022-09-01T09:55:00.059Z,76.29
2022-09-01T09:57:28.916Z,79.23
2022-09-01T10:00:00.816Z,79.21
2022-09-01T10:02:31.196Z,78.90
2022-09-01T10:05:01.686Z,79.35
2022-09-01T10:07:33.022Z,74.30
2022-09-01T10:10:01.857Z,68.88
2022-09-01T10:12:29.769Z,69.87
2022-09-01T10:15:00.566Z,74.29
2022-09-01T10:17:36.099Z,76.06
2022-09-01T10:20:08.184Z,76.31
2022-09-01T10:22:39.766Z,79.05
2022-09-01T10:25:10.460Z,76.13
2022-09-01T10:27:39.448Z,75.58
2022-09-01T10:30:12.492Z,73.49
2022-09-01T10:32:50.768Z,76.88
2022-09-01T10:35:25.878Z,76.59
2022-09-01T10:37:53.803Z,78.33
2022-09-01T10:40:36.191Z,75.07
2022-09-01T10:43:41.069Z,75.88
2022-09-01T10:46:51.084Z,76.89
2022-09-01T10:50:02.292Z,78.16
2022-09-01T10:53:05.081Z,75.64
2022-09-01T10:55:38.891Z,76.97
2022-09-01T11:01:10.822Z,73.63
2022-09-01T11:04:02.826Z,72.94
2022-09-01T11:09:44.712Z,71.20
2022-09-01T11:12:48.577Z,69.35
2022-09-01T11:15:39.273Z,68.19
2022-09-01T11:18:11.983Z,67.49
2022-09-01T11:20:40.546Z,68.60
2022-09-01T11:23:14.954Z,67.62
2022-09-01T11:25:46.574Z,65.78
2022-09-01T11:28:39.447Z,64.75
2022-09-01T11:31:28.726Z,65.43
2022-09-01T11:34:14.826Z,65.91
2022-09-01T11:36:58.955Z,63.55
2022-09-01T11:39:35.268Z,61.44
2022-09-01T11:42:14.821Z,62.38
2022-09-01T11:44:51.791Z,62.58
2022-09-01T11:47:21.439Z,63.89
2022-09-01T11:49:54.205Z,63.15
2022-09-01T11:52:23.165Z,63.68
2022-09-01T11:54:50.976Z,63.92
2022-09-01T11:57:23.611Z,63.21
2022-09-01T11:59:51.544Z,63.91
2022-09-01T12:02:21.241Z,63.65
2022-09-01T12:04:50.615Z,63.85
2022-09-01T12:07:30.224Z,64.77
2022-09-01T12:09:58.068Z,63.25
2022-09-01T12:12:33.578Z,61.08
2022-09-01T12:15:06.107Z,63.07
2022-09-01T12:17:34.602Z,60.90
2022-09-01T12:20:23.381Z,60.91
2022-09-01T12:22:54.549Z,60.87
2022-09-01T12:25:23.903Z,61.16
2022-09-01T12:27:55.616Z,59.24
2022-09-01T12:30:26.063Z,60.12
2022-09-01T12:33:22.944Z,59.97
2022-09-01T12:35:42.256Z,61.05
2022-09-01T12:38:30.697Z,60.80
2022-09-01T12:40:59.041Z,63.27
2022-09-01T12:43:34.332Z,60.40
2022-09-01T12:46:04.853Z,60.72
2022-09-01T12:48:34.018Z,58.83
2022-09-01T12:51:02.797Z,60.28
2022-09-01T12:53:32.509Z,60.07
2022-09-01T12:56:06.866Z,58.39
2022-09-01T12:58:36.060Z,57.69
2022-09-01T13:01:05.748Z,59.09
2022-09-01T13:03:36.849Z,60.05
2022-09-01T13:06:04.887Z,59.42
2022-09-01T13:08:34.097Z,59.58
2022-09-01T13:11:04.130Z,59.50
2022-09-01T13:13:32.251Z,59.16
2022-09-01T13:16:03.508Z,60.36
2022-09-01T13:18:31.988Z,60.30
2022-09-01T13:21:00.009Z,58.19
2022-09-01T13:23:27.967Z,58.81
2022-09-01T13:25:55.858Z,58.47
2022-09-01T13:36:48.156Z,54.79
2022-09-01T13:39:19.247Z,55.82
2022-09-01T13:41:48.722Z,58.64
2022-09-01T13:44:17.379Z,57.32
2022-09-01T13:47:28.275Z,57.89
2022-09-01T13:49:44.558Z,57.96
2022-09-01T13:52:22.793Z,57.60
2022-09-01T13:54:50.943Z,56.89
2022-09-01T13:57:19.040Z,57.21
2022-09-01T13:59:46.886Z,55.22
2022-09-01T14:02:14.684Z,54.02
2022-09-01T14:05:23.085Z,55.03
2022-09-01T14:08:20.579Z,51.30
2022-09-01T14:10:51.038Z,51.83
2022-09-01T14:13:19.423Z,52.08
2022-09-01T14:15:48.377Z,52.96
2022-09-01T14:18:17.340Z,51.77
2022-09-01T14:20:47.596Z,51.40
2022-09-01T14:23:16.121Z,53.22
2022-09-01T14:25:44.724Z,52.76
2022-09-01T14:28:13.264Z,51.65
2022-09-01T14:30:42.282Z,50.60
2022-09-01T14:33:14.190Z,50.48
2022-09-01T14:35:45.996Z,51.47
2022-09-01T14:38:15.657Z,54.61
2022-09-01T14:40:43.817Z,52.21
2022-09-01T14:43:14.564Z,51.99
2022-09-01T14:45:44.597Z,50.45
2022-09-01T14:48:12.598Z,51.76
2022-09-01T14:50:41.337Z,51.70
2022-09-01T14:53:09.272Z,52.16
2022-09-01T14:55:38.513Z,52.35
2022-09-01T14:58:06.366Z,52.28
2022-09-01T15:00:35.944Z,52.81
2022-09-01T15:03:03.988Z,52.42
2022-09-01T15:05:39.529Z,53.28
2022-09-01T15:08:08.352Z,55.27
2022-09-01T15:10:36.596Z,53.44
2022-09-01T15:13:05.915Z,52.77
2022-09-01T15:15:34.017Z,53.30
2022-09-01T15:18:02.013Z,54.03
2022-09-01T15:20:51.301Z,53.58
2022-09-01T15:23:22.701Z,52.71
2022-09-01T15:25:57.259Z,52.63
2022-09-01T15:28:26.932Z,52.64
2022-09-01T15:30:57.010Z,53.58
2022-09-01T15:33:24.812Z,52.65
2022-09-01T15:35:53.817Z,52.46
2022-09-01T15:38:25.019Z,52.45
2022-09-01T15:40:58.500Z,52.83
2022-09-01T15:43:28.535Z,51.06
2022-09-01T15:45:58.252Z,50.99
2022-09-01T15:48:26.675Z,51.53
2022-09-01T15:50:55.097Z,50.65
2022-09-01T15:53:27.797Z,51.74
2022-09-01T15:55:57.925Z,51.61
2022-09-01T15:58:30.445Z,51.09
2022-09-01T16:01:08.880Z,50.64
2022-09-01T16:03:36.834Z,51.56
2022-09-01T16:06:07.272Z,51.83
2022-09-01T16:08:35.698Z,50.58
2022-09-01T16:11:09.694Z,51.84
2022-09-01T16:13:37.739Z,51.20
2022-09-01T16:16:14.816Z,50.81
2022-09-01T16:18:45.989Z,51.03
2022-09-01T16:21:15.860Z,51.31
2022-09-01T16:23:45.271Z,50.94
2022-09-01T16:26:13.104Z,51.46
2022-09-01T16:28:41.115Z,52.36
2022-09-01T16:31:14.829Z,53.02
2022-09-01T16:33:48.336Z,53.11
2022-09-01T16:36:25.477Z,53.66
2022-09-01T16:38:55.173Z,53.96
2022-09-01T16:41:39.766Z,54.15
2022-09-01T16:44:13.869Z,52.56
2022-09-01T16:46:45.722Z,52.85
2022-09-01T16:49:18.110Z,53.22
2022-09-01T16:51:49.567Z,51.39
2022-09-01T16:54:20.866Z,49.83
2022-09-01T16:56:52.586Z,49.77
2022-09-01T16:59:26.129Z,49.58
2022-09-01T17:02:01.053Z,50.49
2022-09-01T17:04:32.800Z,50.23
2022-09-01T17:07:05.873Z,51.25
2022-09-01T17:09:36.570Z,49.80
2022-09-01T17:12:22.718Z,51.12
2022-09-01T17:14:55.216Z,51.37
2022-09-01T17:17:34.228Z,51.34
2022-09-01T17:20:04.352Z,51.04
2022-09-01T17:22:32.559Z,52.51
2022-09-01T17:27:34.007Z,53.86
2022-09-01T17:30:02.305Z,56.33
2022-09-01T17:32:48.349Z,53.86
2022-09-01T17:35:22.740Z,54.76
2022-09-01T17:37:58.266Z,56.35
2022-09-01T17:40:29.005Z,56.50
2022-09-01T17:43:01.136Z,56.18
2022-09-01T17:45:31.659Z,56.37
2022-09-01T17:48:09.083Z,56.10
2022-09-01T17:53:26.240Z,56.86
2022-09-01T17:55:55.939Z,57.67
2022-09-01T17:58:31.491Z,59.08
2022-09-01T18:01:01.861Z,58.80
2022-09-01T18:03:45.779Z,59.11
2022-09-01T18:06:17.120Z,61.35
2022-09-01T18:08:45.565Z,59.84
2022-09-01T18:11:15.424Z,62.31
2022-09-01T18:13:53.276Z,61.36
2022-09-01T18:16:27.005Z,64.23
2022-09-01T18:18:58.501Z,65.43
2022-09-01T18:21:27.642Z,65.72
2022-09-01T18:23:58.915Z,63.84
2022-09-01T18:26:33.028Z,64.51
2022-09-01T18:29:01.026Z,63.18
2022-09-01T18:31:52.350Z,63.98
2022-09-01T18:34:25.768Z,65.34
2022-09-01T18:36:55.244Z,68.34
2022-09-01T18:39:25.836Z,68.89
2022-09-01T18:42:00.954Z,68.18
2022-09-01T18:44:37.264Z,69.52
2022-09-01T18:47:06.954Z,70.75
2022-09-01T18:49:42.514Z,71.90
2022-09-01T18:52:18.041Z,70.24
2022-09-01T18:54:48.929Z,74.22
2022-09-01T18:57:18.749Z,70.91
2022-09-01T18:59:54.659Z,72.04
2022-09-01T19:02:36.249Z,72.19
2022-09-01T19:05:09.420Z,71.86
2022-09-01T19:07:41.889Z,72.89
2022-09-01T19:10:12.944Z,74.44
2022-09-01T19:12:49.389Z,73.53
2022-09-01T19:15:20.634Z,72.69
2022-09-01T19:18:14.129Z,74.79
2022-09-01T19:20:47.389Z,75.01
2022-09-01T19:23:17.769Z,75.55
2022-09-01T19:25:45.826Z,74.29
2022-09-01T19:28:20.497Z,76.10
2022-09-01T19:30:51.758Z,75.92
2022-09-01T19:33:22.487Z,75.49
2022-09-01T19:35:53.226Z,76.88
2022-09-01T19:38:27.429Z,77.43
2022-09-01T19:40:57.217Z,79.60
2022-09-01T19:43:25.468Z,78.27
2022-09-01T19:45:59.461Z,80.57
2022-09-01T19:48:29.218Z,78.50
2022-09-01T19:51:00.339Z,78.56
2022-09-01T19:53:34.670Z,78.40
2022-09-01T19:56:05.272Z,77.98
2022-09-01T19:58:36.737Z,78.70
2022-09-01T20:01:05.717Z,77.89
2022-09-01T20:03:35.524Z,77.71
2022-09-01T20:06:06.157Z,78.19
2022-09-01T20:08:35.786Z,78.39
2022-09-01T20:11:11.359Z,80.18
2022-09-01T20:13:49.231Z,79.18
2022-09-01T20:16:24.384Z,80.28
2022-09-01T20:18:54.800Z,80.01
2022-09-01T20:21:23.993Z,79.88
2022-09-01T20:23:54.483Z,80.76
2022-09-01T20:26:23.424Z,80.58
2022-09-01T20:28:55.732Z,80.57
2022-09-01T20:31:28.036Z,82.12
2022-09-01T20:33:58.444Z,81.28
2022-09-01T20:36:30.728Z,82.19
2022-09-01T20:39:19.429Z,81.80
2022-09-01T20:41:50.542Z,82.63
2022-09-01T20:44:25.057Z,82.22
2022-09-01T20:46:53.971Z,82.02
2022-09-01T20:49:25.333Z,83.71
2022-09-01T20:51:56.651Z,82.35
2022-09-01T20:54:29.483Z,83.05
2022-09-01T20:57:01.110Z,83.14
2022-09-01T20:59:31.981Z,85.33
2022-09-01T21:02:02.774Z,84.74
2022-09-01T21:04:37.652Z,84.30
2022-09-01T21:07:10.530Z,84.88
2022-09-01T21:09:41.918Z,84.84
2022-09-01T21:12:11.131Z,85.44
2022-09-01T21:14:46.622Z,85.67
2022-09-01T21:17:18.027Z,85.71
2022-09-01T21:19:53.369Z,86.50
2022-09-01T21:22:22.888Z,87.15
2022-09-01T21:24:50.902Z,86.28
2022-09-01T21:27:20.067Z,86.55
2022-09-01T21:29:55.446Z,86.93
2022-09-01T21:32:23.616Z,87.42
2022-09-01T21:34:53.078Z,87.33
2022-09-01T21:37:23.784Z,88.39
2022-09-01T21:39:54.063Z,87.54
2022-09-01T21:42:22.480Z,88.48
2022-09-01T21:44:50.345Z,88.53
2022-09-01T21:47:22.198Z,88.30
2022-09-01T21:49:50.057Z,88.32
2022-09-01T21:52:17.943Z,89.92
2022-09-01T21:54:47.289Z,89.12
2022-09-01T21:57:15.434Z,88.81
2022-09-01T21:59:43.325Z,88.72
2022-09-01T22:02:11.240Z,89.24
2022-09-01T22:04:39.662Z,89.50
2022-09-01T22:07:09.172Z,89.28
2022-09-01T22:09:37.015Z,90.29
2022-09-01T22:12:06.857Z,90.83
2022-09-01T22:14:34.708Z,90.05
2022-09-01T22:17:04.466Z,90.88
2022-09-01T22:19:33.989Z,90.36
2022-09-01T22:22:02.203Z,90.21
2022-09-01T22:24:30.109Z,89.72
2022-09-01T22:26:57.922Z,90.31
2022-09-01T22:29:27.177Z,91.45
2022-09-01T22:31:54.990Z,91.25
2022-09-01T22:34:23.082Z,90.72
2022-09-01T22:36:50.972Z,91.11
2022-09-01T22:39:19.239Z,91.50
2022-09-01T22:41:50.141Z,93.02
2022-09-01T22:44:17.992Z,92.78
2022-09-01T22:46:47.210Z,91.96
2022-09-01T22:49:15.329Z,92.73
2022-09-01T22:51:43.511Z,92.29
2022-09-01T22:54:11.965Z,92.64
2022-09-01T22:56:40.213Z,93.11
2022-09-01T22:59:09.711Z,93.64
2022-09-01T23:01:42.627Z,93.00
2022-09-01T23:04:12.955Z,93.56
2022-09-01T23:06:41.977Z,94.03
2022-09-01T23:09:09.787Z,94.06
2022-09-01T23:11:37.763Z,94.32
2022-09-01T23:14:05.897Z,95.51
2022-09-01T23:16:34.013Z,94.54
2022-09-01T23:19:01.946Z,94.87
2022-09-01T23:21:32.577Z,94.18
2022-09-01T23:24:00.601Z,95.21
2022-09-01T23:26:28.511Z,95.25
2022-09-01T23:28:57.038Z,95.12
2022-09-01T23:31:26.478Z,95.28
2022-09-01T23:33:54.452Z,96.05
2022-09-01T23:36:25.206Z,96.41
2022-09-01T23:38:54.736Z,96.43
2022-09-01T23:41:23.744Z,96.07
2022-09-01T23:43:51.827Z,96.71
2022-09-01T23:46:20.439Z,96.48
2022-09-01T23:48:48.361Z,96.79
2022-09-01T23:51:18.065Z,97.37
2022-09-01T23:53:46.720Z,97.57
2022-09-01T23:56:16.781Z,97.72
2022-09-01T23:58:44.971Z,98.14
